Time;durP1;ratioP1;P1;durP2;ratioP2;P2;SDS_P1;SDS_P2;PMS_P1;PMS_P2;Temp;Humidity;BMP_temperature;BMP_pressure;BME280_temperature;BME280_humidity;BME280_pressure;Samples;Min_cycle;Max_cycle;Signal;HPM_P1;HPM_P2
2023/06/08 00:02:11;;;;;;;15.00;13.03;;;20.10;99.90;;;;;;5114312;28;20186;-78
2023/06/08 00:04:40;;;;;;;14.37;12.97;;;20.10;99.90;;;;;;5114139;28;20309;-76
2023/06/08 00:07:10;;;;;;;21.10;14.80;;;20.00;99.90;;;;;;5115447;28;20167;-76
2023/06/08 00:09:37;;;;;;;14.97;13.00;;;20.00;99.90;;;;;;5114923;28;20771;-79
2023/06/08 00:12:03;;;;;;;15.77;13.87;;;20.00;99.90;;;;;;5114110;28;20401;-76
2023/06/08 00:14:30;;;;;;;14.40;12.90;;;19.90;99.90;;;;;;5113964;28;20431;-77
2023/06/08 00:16:57;;;;;;;16.77;13.57;;;19.90;99.90;;;;;;5115558;28;20409;-77
2023/06/08 00:19:24;;;;;;;16.40;13.40;;;19.80;99.90;;;;;;5115497;28;20989;-78
2023/06/08 00:21:50;;;;;;;14.30;12.87;;;19.80;99.90;;;;;;5115072;28;20444;-77
2023/06/08 00:24:20;;;;;;;17.50;13.13;;;19.70;99.90;;;;;;5114768;28;20515;-77
2023/06/08 00:26:45;;;;;;;14.80;12.70;;;19.70;99.90;;;;;;5115339;28;20419;-77
2023/06/08 00:29:11;;;;;;;14.33;12.83;;;19.70;99.90;;;;;;5113763;28;20791;-76
2023/06/08 00:31:40;;;;;;;14.43;12.43;;;19.70;99.90;;;;;;5115034;28;20201;-80
2023/06/08 00:34:06;;;;;;;12.87;11.50;;;19.70;99.90;;;;;;5113771;28;20663;-80
2023/06/08 00:36:32;;;;;;;17.30;12.97;;;19.60;99.90;;;;;;5114889;28;20428;-80
2023/06/08 00:38:58;;;;;;;14.90;12.57;;;19.60;99.90;;;;;;5114140;28;20516;-77
2023/06/08 00:41:23;;;;;;;14.50;12.73;;;19.50;99.90;;;;;;5114874;28;20650;-79
2023/06/08 00:43:49;;;;;;;13.93;12.40;;;19.50;99.90;;;;;;5114802;28;20525;-80
2023/06/08 00:46:16;;;;;;;15.03;12.40;;;19.40;99.90;;;;;;5115021;28;20243;-77
2023/06/08 00:48:43;;;;;;;16.63;11.77;;;19.40;99.90;;;;;;5114848;28;20668;-77
2023/06/08 00:51:10;;;;;;;15.20;13.67;;;19.40;99.90;;;;;;5113279;28;20442;-76
2023/06/08 00:53:37;;;;;;;13.30;11.90;;;19.30;99.90;;;;;;5113309;28;20475;-77
2023/06/08 00:56:03;;;;;;;12.33;11.13;;;19.30;99.90;;;;;;5114557;28;20439;-79
2023/06/08 00:58:29;;;;;;;14.33;11.63;;;19.20;99.90;;;;;;5114389;28;20425;-80
2023/06/08 01:01:03;;;;;;;13.30;11.00;;;19.20;99.90;;;;;;5113117;28;20522;-79
2023/06/08 01:03:33;;;;;;;12.40;10.40;;;19.20;99.90;;;;;;5113203;28;20414;-79
2023/06/08 01:06:00;;;;;;;14.03;12.23;;;19.20;99.90;;;;;;5114326;28;20967;-80
2023/06/08 01:08:38;;;;;;;12.10;11.00;;;19.20;99.90;;;;;;5113015;28;20411;-80
2023/06/08 01:11:28;;;;;;;13.13;11.30;;;19.10;99.90;;;;;;5114360;28;20855;-77
2023/06/08 01:14:19;;;;;;;15.50;12.00;;;19.10;99.90;;;;;;5114430;28;20425;-79
2023/06/08 01:16:51;;;;;;;13.03;11.80;;;19.10;99.90;;;;;;5114407;28;20442;-77
2023/06/08 01:19:54;;;;;;;12.73;10.40;;;19.10;99.90;;;;;;5114254;28;20902;-76
2023/06/08 01:22:28;;;;;;;14.60;11.77;;;19.10;99.90;;;;;;5114360;28;20906;-79
2023/06/08 01:24:56;;;;;;;14.60;11.70;;;19.10;99.90;;;;;;5113788;28;20481;-79
2023/06/08 01:27:25;;;;;;;13.70;12.43;;;19.10;99.90;;;;;;5114276;28;20404;-76
2023/06/08 01:29:51;;;;;;;13.40;12.10;;;19.10;99.90;;;;;;5112888;28;20505;-76
2023/06/08 01:32:18;;;;;;;18.73;12.40;;;19.10;99.90;;;;;;5114138;28;20414;-77
2023/06/08 01:34:45;;;;;;;14.83;11.73;;;19.10;99.90;;;;;;5112908;28;20536;-79
2023/06/08 01:37:29;;;;;;;12.83;11.53;;;19.10;99.90;;;;;;5114023;28;20402;-79
2023/06/08 01:40:03;;;;;;;14.10;12.60;;;19.10;99.90;;;;;;5114342;28;20499;-80
2023/06/08 01:42:32;;;;;;;12.73;11.53;;;19.20;99.90;;;;;;5114106;28;20407;-77
2023/06/08 01:45:10;;;;;;;12.07;10.97;;;19.20;99.90;;;;;;5114187;28;20520;-76
2023/06/08 01:47:47;;;;;;;14.83;11.63;;;19.20;99.90;;;;;;5114018;28;20451;-76
2023/06/08 01:50:15;;;;;;;16.00;12.57;;;19.10;99.90;;;;;;5114555;28;20454;-77
2023/06/08 01:52:43;;;;;;;14.53;11.90;;;19.10;99.90;;;;;;5112682;28;20848;-79
2023/06/08 01:55:20;;;;;;;14.40;12.57;;;19.10;99.90;;;;;;5112956;28;20958;-76
2023/06/08 01:57:47;;;;;;;16.37;12.70;;;19.10;99.90;;;;;;5113959;28;20409;-77
2023/06/08 02:00:15;;;;;;;14.20;12.70;;;19.10;99.90;;;;;;5114161;28;20441;-76
2023/06/08 02:02:41;;;;;;;13.73;12.33;;;19.10;99.90;;;;;;5113871;28;20430;-79
2023/06/08 02:05:12;;;;;;;15.60;13.30;;;19.10;99.90;;;;;;5114077;28;20619;-79
2023/06/08 02:07:41;;;;;;;15.67;12.33;;;19.10;99.90;;;;;;5113804;28;20410;-79
2023/06/08 02:10:08;;;;;;;13.53;11.90;;;19.10;99.90;;;;;;5114140;28;21096;-79
2023/06/08 02:12:34;;;;;;;14.17;12.63;;;19.00;99.90;;;;;;5113776;28;20399;-79
2023/06/08 02:15:01;;;;;;;15.80;13.33;;;19.10;99.90;;;;;;5113578;28;21034;-77
2023/06/08 02:17:33;;;;;;;14.00;12.67;;;19.00;99.90;;;;;;5112418;28;20263;-77
2023/06/08 02:20:06;;;;;;;14.37;12.90;;;19.00;99.90;;;;;;5113561;28;20448;-77
2023/06/08 02:22:32;;;;;;;13.40;11.90;;;19.00;99.90;;;;;;5113699;28;20916;-79
2023/06/08 02:24:58;;;;;;;15.87;13.53;;;19.00;99.90;;;;;;5111934;28;21129;-77
2023/06/08 02:27:24;;;;;;;13.97;12.47;;;19.00;99.90;;;;;;5113680;28;20399;-79
2023/06/08 02:29:50;;;;;;;13.33;12.03;;;19.00;99.90;;;;;;5113851;28;20228;-77
2023/06/08 02:32:15;;;;;;;13.83;12.23;;;19.00;99.90;;;;;;5115175;28;20404;-76
2023/06/08 02:34:41;;;;;;;14.23;12.93;;;18.90;99.90;;;;;;5117533;28;20183;-80
2023/06/08 02:37:07;;;;;;;15.70;14.10;;;18.90;99.90;;;;;;5117239;28;20554;-79
2023/06/08 02:39:33;;;;;;;16.47;13.90;;;18.90;99.90;;;;;;5117543;28;20418;-77
2023/06/08 02:41:58;;;;;;;15.60;13.83;;;18.80;99.90;;;;;;5117197;28;20199;-76
2023/06/08 02:44:24;;;;;;;18.63;13.93;;;18.80;99.90;;;;;;5115851;28;20570;-80
2023/06/08 02:46:50;;;;;;;18.20;13.43;;;18.80;99.90;;;;;;5115804;28;20196;-79
2023/06/08 02:49:16;;;;;;;14.83;13.20;;;18.70;99.90;;;;;;5117139;28;20193;-80
2023/06/08 02:51:42;;;;;;;15.53;13.93;;;18.70;99.90;;;;;;5115681;28;20449;-79
2023/06/08 02:54:07;;;;;;;15.00;13.43;;;18.70;99.90;;;;;;5115720;28;20185;-79
2023/06/08 02:56:33;;;;;;;16.70;13.07;;;18.70;99.90;;;;;;5115592;28;20436;-79
2023/06/08 02:58:59;;;;;;;15.63;14.03;;;18.70;99.90;;;;;;5116846;28;20206;-79
2023/06/08 03:01:30;;;;;;;14.97;13.47;;;18.70;99.90;;;;;;5115429;28;20289;-76
2023/06/08 03:03:56;;;;;;;17.60;13.83;;;18.70;99.90;;;;;;5116783;28;20762;-76
2023/06/08 03:06:21;;;;;;;16.50;13.90;;;18.80;99.90;;;;;;5116605;28;20430;-79
2023/06/08 03:08:57;;;;;;;18.37;13.07;;;18.90;99.90;;;;;;5116730;28;20185;-77
2023/06/08 03:11:23;;;;;;;18.23;13.67;;;19.00;99.90;;;;;;5115402;28;20198;-79
2023/06/08 03:13:49;;;;;;;16.43;14.73;;;19.00;99.90;;;;;;5116551;28;20425;-77
2023/06/08 03:16:15;;;;;;;15.40;13.80;;;19.10;99.90;;;;;;5116570;28;20559;-79
2023/06/08 03:18:44;;;;;;;17.10;14.87;;;19.20;99.90;;;;;;5115122;28;20814;-76
2023/06/08 03:21:12;;;;;;;15.50;13.80;;;19.20;99.90;;;;;;5116304;28;20422;-76
2023/06/08 03:23:38;;;;;;;17.50;14.60;;;19.30;99.90;;;;;;5115274;28;20439;-79
2023/06/08 03:26:04;;;;;;;18.17;13.97;;;19.30;99.90;;;;;;5114925;28;20474;-77
2023/06/08 03:28:30;;;;;;;17.00;14.50;;;19.30;99.90;;;;;;5116198;28;20405;-76
2023/06/08 03:30:55;;;;;;;17.27;14.53;;;19.40;99.90;;;;;;5114824;28;20517;-79
2023/06/08 03:33:21;;;;;;;15.03;13.17;;;19.40;99.90;;;;;;5114856;28;20176;-76
2023/06/08 03:35:48;;;;;;;19.03;13.77;;;19.50;99.90;;;;;;5115250;28;20281;-76
2023/06/08 03:38:14;;;;;;;14.40;12.90;;;19.50;99.90;;;;;;5116090;28;20824;-79
2023/06/08 03:40:40;;;;;;;13.40;12.07;;;19.60;99.90;;;;;;5114929;28;20446;-79
2023/06/08 03:43:05;;;;;;;14.07;12.57;;;19.60;99.90;;;;;;5114685;28;20403;-77
2023/06/08 03:45:31;;;;;;;15.93;14.33;;;19.70;99.90;;;;;;5114659;28;20322;-79
2023/06/08 03:47:57;;;;;;;14.53;13.07;;;19.70;99.90;;;;;;5115879;28;20531;-79
2023/06/08 03:50:22;;;;;;;15.53;13.80;;;19.70;99.90;;;;;;5115676;28;20204;-76
2023/06/08 03:52:48;;;;;;;17.47;14.23;;;19.70;99.90;;;;;;5114559;28;20262;-78
2023/06/08 03:55:14;;;;;;;17.90;13.67;;;19.80;99.90;;;;;;5116026;28;20223;-79
2023/06/08 03:57:40;;;;;;;15.90;13.07;;;19.80;99.90;;;;;;5115738;28;20176;-76
2023/06/08 04:00:13;;;;;;;16.17;13.90;;;19.80;99.90;;;;;;5115791;28;20199;-79
2023/06/08 04:02:39;;;;;;;17.07;14.43;;;19.80;99.90;;;;;;5114352;28;20412;-77
2023/06/08 04:05:08;;;;;;;16.00;13.10;;;19.80;99.90;;;;;;5115730;28;20991;-77
2023/06/08 04:07:36;;;;;;;14.93;13.43;;;19.80;99.90;;;;;;5115547;28;20167;-79
2023/06/08 04:10:02;;;;;;;16.07;14.57;;;19.80;99.90;;;;;;5114016;28;20455;-80
2023/06/08 04:12:28;;;;;;;20.07;15.97;;;19.80;99.90;;;;;;5115356;28;20414;-77
2023/06/08 04:14:54;;;;;;;19.17;16.43;;;19.80;99.90;;;;;;5115442;28;20921;-79
2023/06/08 04:17:20;;;;;;;17.03;15.23;;;19.80;99.90;;;;;;5115292;28;20666;-77
2023/06/08 04:19:45;;;;;;;16.03;14.50;;;19.90;99.90;;;;;;5115511;28;20199;-77
2023/06/08 04:22:11;;;;;;;15.40;13.93;;;19.90;99.90;;;;;;5115162;28;20411;-77
2023/06/08 04:24:38;;;;;;;15.07;13.40;;;20.00;99.90;;;;;;5113425;28;20231;-76
2023/06/08 04:27:07;;;;;;;16.47;14.87;;;20.00;99.90;;;;;;5111173;28;20691;-80
2023/06/08 04:29:33;;;;;;;16.07;14.40;;;20.00;99.90;;;;;;5111963;28;20530;-80
2023/06/08 04:31:59;;;;;;;14.97;12.77;;;20.10;99.90;;;;;;5110783;28;20444;-80
2023/06/08 04:34:25;;;;;;;19.10;14.30;;;20.10;99.90;;;;;;5112964;28;20184;-77
2023/06/08 04:36:51;;;;;;;16.07;13.70;;;20.10;99.90;;;;;;5114109;28;20420;-77
2023/06/08 04:39:17;;;;;;;16.33;14.00;;;20.10;99.90;;;;;;5113662;28;20188;-81
2023/06/08 04:41:44;;;;;;;15.07;13.60;;;20.10;99.90;;;;;;5111986;28;20199;-77
2023/06/08 04:44:13;;;;;;;15.60;13.20;;;20.20;99.90;;;;;;5114875;28;20689;-80
2023/06/08 04:46:41;;;;;;;14.80;13.40;;;20.20;99.90;;;;;;5113511;28;20428;-80
2023/06/08 04:49:08;;;;;;;12.77;11.47;;;20.20;99.90;;;;;;5113456;28;20938;-80
2023/06/08 04:51:33;;;;;;;18.27;14.20;;;20.20;99.90;;;;;;5114647;28;20514;-78
2023/06/08 04:53:59;;;;;;;14.90;12.67;;;20.20;99.90;;;;;;5105650;28;21013;-80
2023/06/08 04:56:29;;;;;;;17.93;14.43;;;20.20;99.90;;;;;;5110527;28;20206;-77
2023/06/08 04:58:56;;;;;;;14.73;13.13;;;20.20;99.90;;;;;;5111980;28;20791;-78
2023/06/08 05:01:22;;;;;;;14.77;13.30;;;20.20;99.90;;;;;;5106340;28;20440;-77
2023/06/08 05:03:48;;;;;;;13.70;11.93;;;20.20;99.90;;;;;;5099103;28;20511;-77
2023/06/08 05:06:14;;;;;;;16.07;13.83;;;20.20;99.90;;;;;;5105293;28;20554;-80
2023/06/08 05:08:39;;;;;;;13.20;11.80;;;20.20;99.90;;;;;;5118891;27;20270;-80
2023/06/08 05:11:05;;;;;;;14.33;12.70;;;20.10;99.90;;;;;;5099774;28;20622;-77
2023/06/08 05:13:31;;;;;;;13.37;12.03;;;20.00;99.90;;;;;;5101686;28;20266;-76
2023/06/08 05:15:58;;;;;;;14.00;12.50;;;20.00;99.90;;;;;;5103130;28;20202;-78
2023/06/08 05:18:26;;;;;;;15.73;13.77;;;20.00;99.90;;;;;;5103328;28;20208;-78
2023/06/08 05:20:51;;;;;;;13.63;12.23;;;20.00;99.90;;;;;;5102372;28;20534;-77
2023/06/08 05:23:17;;;;;;;14.53;13.13;;;19.90;99.90;;;;;;5105724;28;20527;-80
2023/06/08 05:25:43;;;;;;;14.40;12.97;;;20.00;99.90;;;;;;5108851;28;20767;-77
2023/06/08 05:28:09;;;;;;;17.37;13.17;;;20.10;99.90;;;;;;5103519;28;20186;-80
2023/06/08 05:30:35;;;;;;;15.50;12.03;;;20.10;99.90;;;;;;5102300;28;20207;-77
2023/06/08 05:33:00;;;;;;;17.93;14.10;;;20.10;99.90;;;;;;5098968;28;20497;-77
2023/06/08 05:35:27;;;;;;;18.07;13.50;;;20.10;99.90;;;;;;5101356;28;20664;-77
2023/06/08 05:37:52;;;;;;;17.13;13.30;;;20.10;99.90;;;;;;5102971;28;20723;-80
2023/06/08 05:40:18;;;;;;;14.03;12.53;;;20.20;99.90;;;;;;5103854;28;20556;-79
2023/06/08 05:42:44;;;;;;;14.17;11.80;;;20.30;99.90;;;;;;5100245;28;20440;-80
2023/06/08 05:45:11;;;;;;;13.87;10.93;;;20.30;99.90;;;;;;5091606;28;20342;-77
2023/06/08 05:47:37;;;;;;;13.90;10.37;;;20.30;99.90;;;;;;5103439;28;20596;-77
2023/06/08 05:50:03;;;;;;;12.27;11.07;;;20.40;99.90;;;;;;5110231;28;20489;-78
2023/06/08 05:52:30;;;;;;;12.90;10.93;;;20.50;99.90;;;;;;5127486;28;20408;-77
2023/06/08 05:54:55;;;;;;;13.87;10.83;;;20.60;99.90;;;;;;5112370;28;20489;-77
2023/06/08 05:57:21;;;;;;;26.03;18.07;;;20.70;99.90;;;;;;5110831;28;20785;-78
2023/06/08 05:59:47;;;;;;;11.67;10.50;;;20.70;99.90;;;;;;5105006;28;20739;-77
2023/06/08 06:02:13;;;;;;;13.53;11.27;;;20.80;99.90;;;;;;5127609;28;20187;-80
2023/06/08 06:04:40;;;;;;;13.07;11.47;;;20.90;99.90;;;;;;5094305;28;20342;-77
2023/06/08 06:07:06;;;;;;;12.70;11.50;;;20.90;99.90;;;;;;5092725;28;20475;-78
2023/06/08 06:09:32;;;;;;;11.80;10.70;;;20.90;99.90;;;;;;5106721;28;20424;-77
2023/06/08 06:11:59;;;;;;;17.50;10.93;;;21.00;99.90;;;;;;5106201;28;20408;-77
2023/06/08 06:14:25;;;;;;;14.40;12.43;;;21.00;99.90;;;;;;5104747;28;20424;-77
2023/06/08 06:16:50;;;;;;;15.20;12.30;;;21.00;99.90;;;;;;5105208;28;20756;-78
2023/06/08 06:19:16;;;;;;;13.37;11.87;;;21.00;99.90;;;;;;5105376;28;20255;-77
2023/06/08 06:21:42;;;;;;;14.10;10.30;;;21.10;99.90;;;;;;5105559;28;20203;-81
2023/06/08 06:24:07;;;;;;;17.87;11.37;;;21.10;99.90;;;;;;5100697;28;20732;-79
2023/06/08 06:26:33;;;;;;;12.00;10.80;;;21.20;99.90;;;;;;5116417;28;20192;-80
2023/06/08 06:28:58;;;;;;;12.37;11.17;;;21.30;99.90;;;;;;5111146;28;20524;-77
2023/06/08 06:31:24;;;;;;;11.87;10.77;;;21.40;99.90;;;;;;5113917;28;20203;-77
2023/06/08 06:33:51;;;;;;;11.00;10.00;;;21.50;99.90;;;;;;5112473;28;20196;-81
2023/06/08 06:36:16;;;;;;;17.57;10.60;;;21.50;99.90;;;;;;5100128;28;20959;-80
2023/06/08 06:38:42;;;;;;;14.23;11.50;;;21.50;99.90;;;;;;5103025;27;20427;-78
2023/06/08 06:41:08;;;;;;;12.43;9.43;;;21.50;99.90;;;;;;5107746;28;20215;-81
2023/06/08 06:43:33;;;;;;;15.17;11.83;;;21.50;99.90;;;;;;5098336;28;20625;-80
2023/06/08 06:45:59;;;;;;;11.87;10.63;;;21.50;99.90;;;;;;5095749;28;20216;-78
2023/06/08 06:48:25;;;;;;;14.17;11.10;;;21.50;99.90;;;;;;5109618;28;20183;-78
2023/06/08 06:50:51;;;;;;;12.43;11.30;;;21.50;99.90;;;;;;5103866;28;20443;-81
2023/06/08 06:53:17;;;;;;;12.33;10.90;;;21.60;99.90;;;;;;5104869;28;20165;-80
2023/06/08 06:55:43;;;;;;;13.17;11.87;;;21.50;99.90;;;;;;5121814;27;20680;-80
2023/06/08 06:58:09;;;;;;;15.17;10.70;;;21.60;99.90;;;;;;5112761;28;20460;-80
2023/06/08 07:00:37;;;;;;;12.43;11.13;;;21.60;99.90;;;;;;5104467;28;20676;-80
2023/06/08 07:03:06;;;;;;;12.80;11.60;;;21.60;99.90;;;;;;5096821;28;20936;-81
2023/06/08 07:05:33;;;;;;;18.67;14.67;;;21.70;99.90;;;;;;5102940;28;20533;-78
2023/06/08 07:07:59;;;;;;;14.07;12.20;;;21.70;99.90;;;;;;5101455;28;20948;-78
2023/06/08 07:10:25;;;;;;;12.40;11.27;;;21.60;99.90;;;;;;5113633;28;20494;-80
2023/06/08 07:12:51;;;;;;;16.00;11.23;;;21.60;99.90;;;;;;5113785;28;20475;-77
2023/06/08 07:15:17;;;;;;;14.23;12.60;;;21.60;99.90;;;;;;5110894;28;20555;-81
2023/06/08 07:17:44;;;;;;;13.77;12.33;;;21.60;99.90;;;;;;5102696;28;20180;-80
2023/06/08 07:20:10;;;;;;;14.70;12.80;;;21.70;99.90;;;;;;5108409;28;20479;-80
2023/06/08 07:22:36;;;;;;;18.07;13.10;;;21.80;99.90;;;;;;5105238;28;20488;-77
2023/06/08 07:25:05;;;;;;;14.97;13.60;;;21.80;99.90;;;;;;5099168;28;20490;-77
2023/06/08 07:27:31;;;;;;;15.93;13.40;;;21.80;99.90;;;;;;5100399;28;21034;-77
2023/06/08 07:29:57;;;;;;;15.40;13.90;;;21.80;99.90;;;;;;5102315;28;20475;-80
2023/06/08 07:32:24;;;;;;;15.93;12.13;;;21.90;99.90;;;;;;5098435;28;20503;-81
2023/06/08 07:34:50;;;;;;;17.10;15.30;;;21.90;99.90;;;;;;5101591;28;20581;-80
2023/06/08 07:37:15;;;;;;;19.13;15.33;;;21.90;99.90;;;;;;5100064;28;20415;-78
2023/06/08 07:39:41;;;;;;;18.50;15.27;;;21.90;99.90;;;;;;5095845;28;20444;-78
2023/06/08 07:42:07;;;;;;;19.97;17.87;;;21.90;99.90;;;;;;5103116;28;20381;-78
2023/06/08 07:44:32;;;;;;;19.33;16.70;;;21.90;99.90;;;;;;5099072;28;20204;-78
2023/06/08 07:47:00;;;;;;;17.10;15.50;;;21.90;99.90;;;;;;5103393;28;20191;-78
2023/06/08 07:49:27;;;;;;;17.53;15.73;;;21.90;99.90;;;;;;5103271;28;20198;-80
2023/06/08 07:51:54;;;;;;;18.47;16.57;;;22.00;99.90;;;;;;5104919;28;20424;-80
2023/06/08 07:54:19;;;;;;;17.80;16.00;;;22.00;99.90;;;;;;5091580;28;20448;-80
2023/06/08 07:56:46;;;;;;;20.83;17.87;;;22.10;99.90;;;;;;5092183;28;20444;-80
2023/06/08 07:59:12;;;;;;;17.00;15.27;;;22.10;99.90;;;;;;5111363;28;20176;-80
2023/06/08 08:01:38;;;;;;;18.07;16.17;;;22.10;99.90;;;;;;5102217;28;20445;-80
2023/06/08 08:04:03;;;;;;;18.20;16.40;;;22.20;99.90;;;;;;5097228;28;20843;-80
2023/06/08 08:06:29;;;;;;;16.97;15.27;;;22.20;99.90;;;;;;5105332;28;20197;-78
2023/06/08 08:08:55;;;;;;;18.73;15.97;;;22.20;99.90;;;;;;5100981;28;20203;-78
2023/06/08 08:11:21;;;;;;;19.50;15.73;;;22.30;99.90;;;;;;5100860;28;20228;-80
2023/06/08 08:13:47;;;;;;;19.97;17.27;;;22.40;99.90;;;;;;5100129;28;20524;-77
2023/06/08 08:16:13;;;;;;;17.33;15.57;;;22.40;99.90;;;;;;5097073;28;20736;-80
2023/06/08 08:18:38;;;;;;;20.37;15.90;;;22.50;99.90;;;;;;5102286;28;20212;-80
2023/06/08 08:21:05;;;;;;;17.70;16.00;;;22.60;99.90;;;;;;5101809;28;20490;-78
2023/06/08 08:23:30;;;;;;;19.40;17.70;;;22.70;99.90;;;;;;5089643;28;20200;-81
2023/06/08 08:25:57;;;;;;;19.53;16.77;;;22.70;99.90;;;;;;5091327;28;20478;-80
2023/06/08 08:28:23;;;;;;;21.40;19.30;;;22.80;99.90;;;;;;5104072;28;20211;-80
2023/06/08 08:30:48;;;;;;;20.70;18.70;;;22.90;99.90;;;;;;5098257;28;20436;-78
2023/06/08 08:33:14;;;;;;;20.03;18.00;;;23.00;99.90;;;;;;5100213;28;20691;-77
2023/06/08 08:35:40;;;;;;;20.40;18.40;;;23.00;99.90;;;;;;5105013;28;20209;-80
2023/06/08 08:38:07;;;;;;;18.70;16.70;;;23.10;99.90;;;;;;5101064;28;20184;-77
2023/06/08 08:40:32;;;;;;;20.30;18.20;;;23.10;99.90;;;;;;5102645;28;20228;-78
2023/06/08 08:43:08;;;;;;;18.33;16.53;;;23.20;99.90;;;;;;5101578;28;20832;-80
2023/06/08 08:45:35;;;;;;;17.77;16.03;;;23.20;99.90;;;;;;5091846;28;20277;-78
2023/06/08 08:48:01;;;;;;;16.97;15.30;;;23.30;99.90;;;;;;5092841;28;20922;-77
2023/06/08 08:50:33;;;;;;;20.10;16.30;;;23.30;99.90;;;;;;5109115;28;21416;-81
2023/06/08 08:53:00;;;;;;;17.47;15.77;;;23.40;99.90;;;;;;5111344;28;20497;-77
2023/06/08 08:55:33;;;;;;;16.10;14.40;;;23.50;99.90;;;;;;5110503;28;21040;-78
2023/06/08 08:58:00;;;;;;;15.53;13.50;;;23.50;99.90;;;;;;5093555;28;20498;-78
2023/06/08 09:00:27;;;;;;;14.97;13.43;;;23.50;99.90;;;;;;5098339;28;20447;-78
2023/06/08 09:02:53;;;;;;;12.93;11.73;;;23.60;99.90;;;;;;5108474;28;20965;-78
2023/06/08 09:05:19;;;;;;;13.43;12.20;;;23.70;99.90;;;;;;5110976;28;20474;-79
2023/06/08 09:07:45;;;;;;;12.80;11.57;;;23.80;99.90;;;;;;5112831;28;20413;-78
2023/06/08 09:10:18;;;;;;;12.80;11.50;;;23.90;99.90;;;;;;5108830;28;20607;-77
2023/06/08 09:12:53;;;;;;;13.40;12.00;;;24.00;99.90;;;;;;5106626;28;20181;-80
2023/06/08 09:15:29;;;;;;;13.67;12.47;;;24.10;99.90;;;;;;5101838;28;20525;-80
2023/06/08 09:18:02;;;;;;;12.47;11.37;;;24.20;99.90;;;;;;5105472;28;20543;-81
2023/06/08 09:20:31;;;;;;;12.00;10.80;;;24.20;99.90;;;;;;5108253;28;20466;-77
2023/06/08 09:22:57;;;;;;;15.97;13.10;;;24.30;99.90;;;;;;5088292;28;20834;-81
2023/06/08 09:25:37;;;;;;;14.27;12.73;;;24.40;99.90;;;;;;5087970;28;20695;-81
2023/06/08 09:28:28;;;;;;;14.07;12.63;;;24.50;99.90;;;;;;5093502;28;20694;-81
2023/06/08 09:31:00;;;;;;;13.30;12.00;;;24.60;99.90;;;;;;5091084;28;20460;-79
2023/06/08 09:33:29;;;;;;;13.27;12.00;;;24.70;99.90;;;;;;5092142;28;20466;-78
2023/06/08 09:35:57;;;;;;;13.87;12.63;;;24.80;99.90;;;;;;5106476;28;20423;-80
2023/06/08 09:38:25;;;;;;;13.77;12.47;;;24.90;99.90;;;;;;5105751;28;20458;-78
2023/06/08 09:40:51;;;;;;;13.43;12.23;;;25.00;99.90;;;;;;5111105;28;20432;-78
2023/06/08 09:43:33;;;;;;;14.40;13.10;;;25.10;99.90;;;;;;5109971;28;20430;-78
2023/06/08 09:45:59;;;;;;;16.23;14.83;;;25.20;99.90;;;;;;5111905;28;20862;-78
2023/06/08 09:48:25;;;;;;;14.13;12.83;;;25.20;99.90;;;;;;5115034;28;20494;-78
2023/06/08 09:51:01;;;;;;;15.37;13.87;;;25.30;99.90;;;;;;5109705;28;20531;-78
2023/06/08 09:53:28;;;;;;;14.27;12.77;;;25.30;99.90;;;;;;5098758;28;20189;-81
2023/06/08 09:55:54;;;;;;;14.33;13.03;;;25.30;99.90;;;;;;5109859;27;20462;-81
2023/06/08 09:58:27;;;;;;;15.60;12.97;;;25.40;99.90;;;;;;5104835;28;20412;-78
2023/06/08 10:01:00;;;;;;;15.00;13.50;;;25.40;99.90;;;;;;5102406;28;20447;-81
2023/06/08 10:03:36;;;;;;;15.40;13.97;;;25.50;99.90;;;;;;5093462;28;20451;-81
2023/06/08 10:06:05;;;;;;;12.77;11.47;;;25.50;99.90;;;;;;5103828;28;20831;-81
2023/06/08 10:08:32;;;;;;;13.57;12.40;;;25.50;99.90;;;;;;5104825;28;20491;-81
2023/06/08 10:10:58;;;;;;;13.47;12.10;;;25.50;99.90;;;;;;5104033;28;20538;-78
2023/06/08 10:13:25;;;;;;;13.63;12.33;;;25.50;99.90;;;;;;5105723;28;20438;-81
2023/06/08 10:15:52;;;;;;;14.23;12.30;;;25.60;99.90;;;;;;5108498;28;20463;-78
2023/06/08 10:18:19;;;;;;;12.80;11.70;;;25.70;99.90;;;;;;5108408;28;20451;-81
2023/06/08 10:20:45;;;;;;;12.90;11.60;;;25.70;99.90;;;;;;5103072;28;20443;-78
2023/06/08 10:23:12;;;;;;;17.97;13.03;;;25.80;99.90;;;;;;5090271;28;20450;-78
2023/06/08 10:25:38;;;;;;;12.90;11.53;;;25.90;99.90;;;;;;5116425;27;20592;-81
2023/06/08 10:28:08;;;;;;;13.47;12.17;;;26.00;99.90;;;;;;5098843;28;21802;-77
2023/06/08 10:30:40;;;;;;;13.53;12.30;;;26.10;99.90;;;;;;5102798;28;20479;-81
2023/06/08 10:33:09;;;;;;;16.70;13.30;;;26.20;99.90;;;;;;5100044;28;20431;-81
2023/06/08 10:35:36;;;;;;;15.27;12.40;;;26.20;99.90;;;;;;5107455;28;21051;-81
2023/06/08 10:38:15;;;;;;;13.43;12.23;;;26.30;99.90;;;;;;5098766;28;20485;-78
2023/06/08 10:40:49;;;;;;;14.20;12.83;;;26.30;99.90;;;;;;5100817;28;20924;-78
2023/06/08 10:43:15;;;;;;;14.47;13.10;;;26.30;99.90;;;;;;5102802;28;20443;-79
2023/06/08 10:45:44;;;;;;;12.67;11.43;;;26.30;99.90;;;;;;5104034;28;20828;-81
2023/06/08 10:48:15;;;;;;;12.93;11.53;;;26.30;99.90;;;;;;5106830;28;20427;-81
2023/06/08 10:50:46;;;;;;;12.73;11.53;;;26.30;99.90;;;;;;5098859;28;20491;-82
2023/06/08 10:53:12;;;;;;;13.47;12.20;;;26.30;99.90;;;;;;5095490;28;21085;-81
2023/06/08 10:55:37;;;;;;;13.57;12.07;;;26.30;99.90;;;;;;5100390;28;20501;-82
2023/06/08 10:58:16;;;;;;;15.30;13.80;;;26.40;99.90;;;;;;5094947;28;20564;-81
2023/06/08 11:00:43;;;;;;;13.83;11.47;;;26.40;99.90;;;;;;5096952;28;20199;-82
2023/06/08 11:03:13;;;;;;;13.17;11.97;;;26.40;99.90;;;;;;5095693;28;20503;-80
2023/06/08 11:05:44;;;;;;;13.40;12.03;;;26.40;99.90;;;;;;5102403;28;20845;-81
2023/06/08 11:08:11;;;;;;;16.10;14.60;;;26.40;99.90;;;;;;5102239;28;20412;-78
2023/06/08 11:10:41;;;;;;;13.80;12.43;;;26.40;99.90;;;;;;5100252;28;20459;-81
2023/06/08 11:13:08;;;;;;;15.87;13.63;;;26.40;99.90;;;;;;5095997;28;20417;-78
2023/06/08 11:15:36;;;;;;;16.60;14.93;;;26.40;99.90;;;;;;5101122;28;20929;-78
2023/06/08 11:18:03;;;;;;;16.00;14.50;;;26.40;99.90;;;;;;5095059;28;20778;-81
2023/06/08 11:20:29;;;;;;;16.13;14.60;;;26.40;99.90;;;;;;5099060;28;20532;-78
2023/06/08 11:22:55;;;;;;;10.17;8.53;;;26.40;99.90;;;;;;5091284;28;20520;-81
2023/06/08 11:25:22;;;;;;;6.23;5.07;;;26.30;99.90;;;;;;5097417;28;20717;-78
2023/06/08 11:27:57;;;;;;;4.40;4.00;;;26.20;99.90;;;;;;5098307;28;20658;-78
2023/06/08 11:30:34;;;;;;;6.53;4.00;;;26.00;99.90;;;;;;5110435;28;20449;-78
2023/06/08 11:33:02;;;;;;;4.17;3.87;;;25.80;99.90;;;;;;5090075;28;20420;-81
2023/06/08 11:35:28;;;;;;;4.20;3.80;;;25.60;99.90;;;;;;5092392;28;20822;-81
2023/06/08 11:37:59;;;;;;;3.50;3.20;;;25.40;99.90;;;;;;5090488;28;20408;-81
2023/06/08 11:40:25;;;;;;;4.87;4.10;;;25.30;99.90;;;;;;5103132;28;20203;-82
2023/06/08 11:42:51;;;;;;;4.57;3.93;;;25.10;99.90;;;;;;5104369;28;20443;-81
2023/06/08 11:45:17;;;;;;;9.10;7.27;;;25.00;99.90;;;;;;5105294;28;20755;-78
2023/06/08 11:47:45;;;;;;;10.00;9.20;;;24.80;99.90;;;;;;5101563;28;20938;-78
2023/06/08 11:50:14;;;;;;;10.33;9.33;;;24.60;99.90;;;;;;5098107;28;20474;-78
2023/06/08 11:52:42;;;;;;;12.10;10.90;;;24.50;99.90;;;;;;5095273;28;20469;-78
2023/06/08 11:55:16;;;;;;;11.17;10.17;;;24.30;99.90;;;;;;5089416;28;20504;-77
2023/06/08 11:58:03;;;;;;;10.33;9.37;;;24.20;99.90;;;;;;5105050;28;20438;-78
2023/06/08 12:00:33;;;;;;;10.53;9.50;;;24.10;99.90;;;;;;5097243;28;20472;-78
2023/06/08 12:03:01;;;;;;;11.27;10.10;;;23.90;99.90;;;;;;5106015;28;20461;-78
2023/06/08 12:05:30;;;;;;;15.97;12.70;;;23.90;99.90;;;;;;5095314;28;21023;-82
2023/06/08 12:07:58;;;;;;;12.30;11.00;;;23.80;99.90;;;;;;5096656;28;20418;-78
2023/06/08 12:10:32;;;;;;;13.10;11.77;;;23.70;99.90;;;;;;5103757;28;20807;-78
2023/06/08 12:12:58;;;;;;;19.90;12.10;;;23.60;99.90;;;;;;5090673;28;20418;-78
2023/06/08 12:15:24;;;;;;;18.13;11.97;;;23.50;99.90;;;;;;5098022;28;20500;-78
2023/06/08 12:17:50;;;;;;;13.63;12.20;;;23.40;99.90;;;;;;5099173;28;20437;-80
2023/06/08 12:20:17;;;;;;;12.97;11.33;;;23.40;99.90;;;;;;5101079;28;20205;-77
2023/06/08 12:22:43;;;;;;;15.97;13.00;;;23.40;99.90;;;;;;5094308;28;20641;-80
2023/06/08 12:25:09;;;;;;;13.60;12.30;;;23.40;99.90;;;;;;5101339;28;20996;-81
2023/06/08 12:27:37;;;;;;;12.30;11.20;;;23.40;99.90;;;;;;5108804;28;20429;-77
2023/06/08 12:30:08;;;;;;;14.27;12.50;;;23.40;99.90;;;;;;5111050;28;20452;-80
2023/06/08 12:32:34;;;;;;;12.67;11.47;;;23.40;99.90;;;;;;5103282;28;20806;-81